createdAt,value
2022-11-14T00:00:26.271Z,11.22
2022-11-14T00:05:43.504Z,11.19
2022-11-14T00:10:58.734Z,10.97
2022-11-14T00:16:14.959Z,10.81
2022-11-14T00:21:30.462Z,10.13
2022-11-14T00:26:45.959Z,10.03
2022-11-14T00:32:02.048Z,9.95
2022-11-14T00:37:18.324Z,10.33
2022-11-14T00:42:34.737Z,10.45
2022-11-14T00:47:50.963Z,10.19
2022-11-14T00:53:06.858Z,10.36
2022-11-14T00:58:22.474Z,10.79
2022-11-14T01:03:39.321Z,10.84
2022-11-14T01:08:54.834Z,10.94
2022-11-14T01:14:10.210Z,10.60
2022-11-14T01:19:26.972Z,10.74
2022-11-14T01:24:42.454Z,11.02
2022-11-14T01:29:57.903Z,10.54
2022-11-14T01:35:14.140Z,10.98
2022-11-14T01:40:30.207Z,11.24
2022-11-14T01:45:53.330Z,11.30
2022-11-14T01:51:18.357Z,11.07
2022-11-14T01:56:43.130Z,10.97
2022-11-14T02:02:03.661Z,11.29
2022-11-14T02:07:19.809Z,10.94
2022-11-14T02:12:35.801Z,11.26
2022-11-14T02:17:51.294Z,11.12
2022-11-14T02:23:07.463Z,11.45
2022-11-14T02:28:23.024Z,11.45
2022-11-14T02:33:38.415Z,11.44
2022-11-14T02:38:54.760Z,11.46
2022-11-14T02:44:10.379Z,11.33
2022-11-14T02:49:25.874Z,11.48
2022-11-14T02:54:41.965Z,11.51
2022-11-14T02:59:57.703Z,11.20
2022-11-14T03:05:13.299Z,10.75
2022-11-14T03:10:29.397Z,11.25
2022-11-14T03:15:47.842Z,11.35
2022-11-14T03:21:07.662Z,11.28
2022-11-14T03:26:24.059Z,11.16
2022-11-14T03:31:39.557Z,10.74
2022-11-14T03:36:55.066Z,10.44
2022-11-14T03:42:11.573Z,10.00
2022-11-14T03:47:27.213Z,10.27
2022-11-14T03:52:42.406Z,10.54
2022-11-14T03:57:58.466Z,10.57
2022-11-14T04:03:14.192Z,10.62
2022-11-14T04:08:30.456Z,10.74
2022-11-14T04:13:46.466Z,10.85
2022-11-14T04:19:01.847Z,10.75
2022-11-14T04:24:19.450Z,10.39
2022-11-14T04:29:35.765Z,10.29
2022-11-14T04:34:51.212Z,10.07
2022-11-14T04:40:08.332Z,10.18
2022-11-14T04:45:24.979Z,9.99
2022-11-14T04:50:40.458Z,9.86
2022-11-14T04:55:56.018Z,9.94
2022-11-14T05:01:13.932Z,9.82
2022-11-14T05:06:29.870Z,9.98
2022-11-14T05:11:47.684Z,9.96
2022-11-14T05:17:03.910Z,9.96
2022-11-14T05:22:19.542Z,9.66
2022-11-14T05:27:35.553Z,10.06
2022-11-14T05:32:52.580Z,10.01
2022-11-14T05:38:08.310Z,10.20
2022-11-14T05:43:23.723Z,10.12
2022-11-14T05:48:41.088Z,10.30
2022-11-14T05:53:57.087Z,10.28
2022-11-14T05:59:13.630Z,10.03
2022-11-14T06:04:30.963Z,9.34
2022-11-14T06:09:46.985Z,9.70
2022-11-14T06:15:02.445Z,8.95
2022-11-14T06:20:18.973Z,9.17
2022-11-14T06:25:34.425Z,8.60
2022-11-14T06:30:49.924Z,8.55
2022-11-14T06:36:08.079Z,8.46
2022-11-14T06:41:24.034Z,8.13
2022-11-14T06:46:39.409Z,8.31
2022-11-14T06:51:55.868Z,8.31
2022-11-14T06:57:12.050Z,8.03
2022-11-14T07:02:27.399Z,8.22
2022-11-14T07:07:44.639Z,8.19
2022-11-14T07:13:00.440Z,8.10
2022-11-14T07:18:16.214Z,8.39
2022-11-14T07:23:35.823Z,8.41
2022-11-14T07:28:54.418Z,8.44
2022-11-14T07:34:12.205Z,8.23
2022-11-14T07:39:28.071Z,8.55
2022-11-14T07:44:43.757Z,8.39
2022-11-14T07:49:59.331Z,8.54
2022-11-14T07:55:15.809Z,8.43
2022-11-14T08:00:31.617Z,8.63
2022-11-14T08:05:47.123Z,8.75
2022-11-14T08:11:04.430Z,8.88
2022-11-14T08:16:19.849Z,8.96
2022-11-14T08:21:36.389Z,8.48
2022-11-14T08:26:52.751Z,9.31
2022-11-14T08:32:08.429Z,9.31
2022-11-14T08:37:23.941Z,9.36
2022-11-14T08:42:40.320Z,9.39
2022-11-14T08:47:58.934Z,9.07
2022-11-14T08:53:16.512Z,9.57
2022-11-14T08:58:34.420Z,9.97
2022-11-14T09:03:52.228Z,9.89
2022-11-14T09:09:12.203Z,9.87
2022-11-14T09:14:28.880Z,10.01
2022-11-14T09:19:45.390Z,9.71
2022-11-14T09:25:03.455Z,10.16
2022-11-14T09:30:20.640Z,10.45
2022-11-14T09:35:37.516Z,10.39
2022-11-14T09:41:10.119Z,9.81
2022-11-14T09:46:32.293Z,10.30
2022-11-14T09:51:54.342Z,10.35
2022-11-14T09:57:16.109Z,10.06
2022-11-14T10:02:40.919Z,10.28
2022-11-14T10:08:25.207Z,10.44
2022-11-14T10:14:03.211Z,10.45
2022-11-14T10:19:27.354Z,10.43
2022-11-14T10:24:57.266Z,10.66
2022-11-14T10:30:15.958Z,10.69
2022-11-14T10:35:39.148Z,10.46
2022-11-14T10:40:59.360Z,10.70
2022-11-14T10:46:20.387Z,10.62
2022-11-14T10:51:41.494Z,10.68
2022-11-14T10:56:57.056Z,10.77
2022-11-14T11:02:15.217Z,11.07
2022-11-14T11:07:49.296Z,10.77
2022-11-14T11:13:09.611Z,10.92
2022-11-14T11:18:29.589Z,11.11
2022-11-14T11:23:51.903Z,11.00
2022-11-14T11:29:15.195Z,10.79
2022-11-14T11:34:32.876Z,11.32
2022-11-14T11:39:55.141Z,11.31
2022-11-14T11:45:17.039Z,11.65
2022-11-14T11:50:33.191Z,11.62
2022-11-14T11:55:53.187Z,11.68
2022-11-14T12:01:10.801Z,11.56
2022-11-14T12:06:29.518Z,11.19
2022-11-14T12:11:52.528Z,11.38
2022-11-14T12:17:34.189Z,11.44
2022-11-14T12:23:23.264Z,10.98
2022-11-14T12:28:58.788Z,11.22
2022-11-14T12:34:25.636Z,11.08
2022-11-14T12:39:41.351Z,11.08
2022-11-14T12:44:57.876Z,11.27
2022-11-14T12:50:41.765Z,11.24
2022-11-14T12:56:11.872Z,11.17
2022-11-14T13:01:50.124Z,11.03
2022-11-14T13:07:31.203Z,10.85
2022-11-14T13:13:17.392Z,10.73
2022-11-14T13:18:52.522Z,11.01
2022-11-14T13:24:08.814Z,10.50
2022-11-14T13:29:57.622Z,10.96
2022-11-14T13:35:18.455Z,10.96
2022-11-14T13:40:40.181Z,10.84
2022-11-14T13:46:09.367Z,10.97
2022-11-14T13:51:42.124Z,10.73
2022-11-14T13:57:11.874Z,10.53
2022-11-14T14:02:49.285Z,10.88
2022-11-14T14:08:21.896Z,10.75
2022-11-14T14:13:55.344Z,10.65
2022-11-14T14:19:23.032Z,10.35
2022-11-14T14:24:55.832Z,10.13
2022-11-14T14:30:16.883Z,10.67
2022-11-14T14:35:40.207Z,10.02
2022-11-14T14:41:09.559Z,10.54
2022-11-14T14:46:35.240Z,10.66
2022-11-14T14:51:58.112Z,10.71
2022-11-14T14:57:20.443Z,10.46
2022-11-14T15:02:39.461Z,10.64
2022-11-14T15:07:58.521Z,10.34
2022-11-14T15:13:17.687Z,10.57
2022-11-14T15:18:33.727Z,10.75
2022-11-14T15:23:59.455Z,10.64
2022-11-14T15:29:19.872Z,10.68
2022-11-14T15:34:39.315Z,10.24
2022-11-14T15:40:20.867Z,10.27
2022-11-14T15:45:40.594Z,10.30
2022-11-14T15:50:55.999Z,10.42
2022-11-14T15:56:17.539Z,10.10
2022-11-14T16:01:36.592Z,10.29
2022-11-14T16:06:55.871Z,10.53
2022-11-14T16:12:12.414Z,10.51
2022-11-14T16:17:36.934Z,10.18
2022-11-14T16:22:54.493Z,10.49
2022-11-14T16:28:13.230Z,10.26
2022-11-14T16:33:31.395Z,10.71
2022-11-14T16:38:51.981Z,10.63
2022-11-14T16:44:14.767Z,10.77
2022-11-14T16:49:31.060Z,10.79
2022-11-14T16:54:47.783Z,10.72
2022-11-14T17:00:04.645Z,10.77
2022-11-14T17:05:23.501Z,11.19
2022-11-14T17:10:47.017Z,11.19
2022-11-14T17:16:03.505Z,10.87
2022-11-14T17:21:20.643Z,10.69
2022-11-14T17:26:37.375Z,10.83
2022-11-14T17:31:54.129Z,10.73
2022-11-14T17:37:11.949Z,11.00
2022-11-14T17:42:27.737Z,10.77
2022-11-14T17:47:46.071Z,10.59
2022-11-14T17:53:04.245Z,11.10
2022-11-14T17:58:21.724Z,11.01
2022-11-14T18:03:39.734Z,10.60
2022-11-14T18:08:56.362Z,10.13
2022-11-14T18:14:12.369Z,10.52
2022-11-14T18:19:29.613Z,10.28
2022-11-14T18:24:48.273Z,10.20
2022-11-14T18:30:26.814Z,10.16
2022-11-14T18:35:40.472Z,9.63
2022-11-14T18:40:57.709Z,9.92
2022-11-14T18:46:15.358Z,9.68
2022-11-14T18:51:31.350Z,9.79
2022-11-14T18:56:48.176Z,9.71
2022-11-14T19:02:04.027Z,9.65
2022-11-14T19:07:19.692Z,9.22
2022-11-14T19:12:35.664Z,9.40
2022-11-14T19:17:51.401Z,9.27
2022-11-14T19:23:06.910Z,9.55
2022-11-14T19:28:24.933Z,9.52
2022-11-14T19:33:42.215Z,9.28
2022-11-14T19:38:59.559Z,9.25
2022-11-14T19:44:15.935Z,9.48
2022-11-14T19:49:35.437Z,9.44
2022-11-14T19:54:51.956Z,9.58
2022-11-14T20:00:12.375Z,9.32
2022-11-14T20:05:27.894Z,9.58
2022-11-14T20:10:47.888Z,9.56
2022-11-14T20:16:12.516Z,9.36
2022-11-14T20:21:30.210Z,9.22
2022-11-14T20:26:45.804Z,8.99
2022-11-14T20:32:05.190Z,9.34
2022-11-14T20:37:22.999Z,9.14
2022-11-14T20:42:40.341Z,9.02
2022-11-14T20:47:57.086Z,9.03
2022-11-14T20:53:12.715Z,8.96
2022-11-14T20:58:28.734Z,9.18
2022-11-14T21:03:45.269Z,9.23
2022-11-14T21:09:00.765Z,9.13
2022-11-14T21:14:16.159Z,9.28
2022-11-14T21:19:32.652Z,9.27
2022-11-14T21:24:48.059Z,9.07
2022-11-14T21:30:04.301Z,9.09
2022-11-14T21:35:20.258Z,9.29
2022-11-14T21:40:35.546Z,8.99
2022-11-14T21:46:03.693Z,9.28
2022-11-14T21:51:21.859Z,9.12
2022-11-14T21:56:37.699Z,9.27
2022-11-14T22:02:13.529Z,9.22
2022-11-14T22:07:30.303Z,9.26
2022-11-14T22:12:46.169Z,9.12
2022-11-14T22:18:01.845Z,8.83
2022-11-14T22:23:17.836Z,8.52
2022-11-14T22:28:33.405Z,9.13
2022-11-14T22:33:50.836Z,8.73
2022-11-14T22:39:06.963Z,8.69
2022-11-14T22:44:22.374Z,9.04
2022-11-14T22:49:37.849Z,8.72
2022-11-14T22:54:54.491Z,8.35
2022-11-14T23:00:11.940Z,9.06
2022-11-14T23:05:27.609Z,9.08
2022-11-14T23:10:44.799Z,9.27
2022-11-14T23:16:00.530Z,8.99
2022-11-14T23:21:19.127Z,9.02
2022-11-14T23:26:35.642Z,9.03
2022-11-14T23:31:50.864Z,8.69
2022-11-14T23:37:06.665Z,8.64
2022-11-14T23:42:24.108Z,8.87
2022-11-14T23:47:39.668Z,8.72
2022-11-14T23:52:54.912Z,8.85
2022-11-14T23:58:11.641Z,8.98
